Time;durP1;ratioP1;P1;durP2;ratioP2;P2;SDS_P1;SDS_P2;PMS_P1;PMS_P2;Temp;Humidity;BMP_temperature;BMP_pressure;BME280_temperature;BME280_humidity;BME280_pressure;Samples;Min_cycle;Max_cycle;Signal;HPM_P1;HPM_P2
2023/03/23 00:02:04;;;;;;;6.30;3.53;;;12.40;14.90;;;;;;5108008;28;20463;-71
2023/03/23 00:04:31;;;;;;;6.57;3.40;;;12.40;14.90;;;;;;5107835;28;20546;-71
2023/03/23 00:07:00;;;;;;;7.83;3.93;;;12.50;14.80;;;;;;5107613;28;20482;-71
2023/03/23 00:09:29;;;;;;;6.80;3.20;;;12.40;14.80;;;;;;5107469;28;20458;-70
2023/03/23 00:12:04;;;;;;;8.10;4.00;;;12.40;14.60;;;;;;5107026;28;20451;-71
2023/03/23 00:14:40;;;;;;;7.53;3.77;;;12.50;14.60;;;;;;5107222;28;20770;-71
2023/03/23 00:17:09;;;;;;;7.67;3.90;;;12.50;14.50;;;;;;5092424;28;20470;-71
2023/03/23 00:19:45;;;;;;;8.90;4.50;;;12.50;14.50;;;;;;5107526;28;20463;-71
2023/03/23 00:22:12;;;;;;;7.00;4.03;;;12.50;14.80;;;;;;5106268;28;20878;-71
2023/03/23 00:24:41;;;;;;;6.97;3.90;;;12.60;14.70;;;;;;5107829;28;20466;-71
2023/03/23 00:27:08;;;;;;;8.90;4.73;;;12.60;14.80;;;;;;5087293;28;21103;-71
2023/03/23 00:29:35;;;;;;;6.53;3.90;;;12.60;14.80;;;;;;5093053;28;20455;-71
2023/03/23 00:32:02;;;;;;;6.73;3.27;;;12.60;14.90;;;;;;5106785;28;20467;-71
2023/03/23 00:34:33;;;;;;;8.10;4.23;;;12.50;15.20;;;;;;5107704;28;20447;-71
2023/03/23 00:37:00;;;;;;;8.30;4.03;;;12.50;15.30;;;;;;5107546;28;20529;-71
2023/03/23 00:39:29;;;;;;;8.77;4.50;;;12.40;15.40;;;;;;5106357;28;20857;-71
2023/03/23 00:42:00;;;;;;;7.10;3.93;;;12.40;15.30;;;;;;5104447;28;20456;-70
2023/03/23 00:44:28;;;;;;;8.73;4.43;;;12.40;15.40;;;;;;5086962;28;20986;-71
2023/03/23 00:46:56;;;;;;;8.30;5.10;;;12.40;15.40;;;;;;5107007;28;20478;-71
2023/03/23 00:49:25;;;;;;;8.00;3.93;;;12.40;15.40;;;;;;5106550;28;20473;-71
2023/03/23 00:51:52;;;;;;;9.53;4.40;;;12.50;15.50;;;;;;5107156;27;20536;-71
2023/03/23 00:54:19;;;;;;;11.87;5.03;;;12.50;15.50;;;;;;5107205;28;20712;-71
2023/03/23 00:56:46;;;;;;;8.43;4.63;;;12.40;15.50;;;;;;5109724;28;20475;-71
2023/03/23 00:59:15;;;;;;;8.17;4.87;;;12.40;15.50;;;;;;5111037;28;20483;-71
2023/03/23 01:01:42;;;;;;;8.10;4.63;;;12.40;15.70;;;;;;5109455;28;20464;-71
2023/03/23 01:04:11;;;;;;;7.40;4.73;;;12.40;15.90;;;;;;5110644;28;20451;-71
2023/03/23 01:06:39;;;;;;;8.90;5.10;;;12.40;16.20;;;;;;5106789;28;20905;-71
2023/03/23 01:09:07;;;;;;;8.20;4.90;;;12.40;16.40;;;;;;5107605;28;20877;-71
2023/03/23 01:11:35;;;;;;;10.10;4.87;;;12.40;16.50;;;;;;5106922;28;20760;-71
2023/03/23 01:14:02;;;;;;;11.90;5.37;;;12.30;16.50;;;;;;5107299;28;20455;-71
2023/03/23 01:16:30;;;;;;;9.90;4.83;;;12.30;16.70;;;;;;5107287;28;21235;-71
2023/03/23 01:18:57;;;;;;;9.30;5.00;;;12.30;16.70;;;;;;5106718;28;20474;-71
2023/03/23 01:21:24;;;;;;;9.83;5.57;;;12.30;16.90;;;;;;5107350;28;20816;-71
2023/03/23 01:23:51;;;;;;;9.90;6.47;;;12.30;17.10;;;;;;5102312;28;20455;-71
2023/03/23 01:26:20;;;;;;;8.90;5.17;;;12.20;17.10;;;;;;5107344;28;20704;-71
2023/03/23 01:28:48;;;;;;;9.50;4.60;;;12.10;17.30;;;;;;5107137;28;20508;-71
2023/03/23 01:31:17;;;;;;;10.10;4.97;;;12.10;17.90;;;;;;5106281;27;20463;-71
2023/03/23 01:33:46;;;;;;;8.60;4.83;;;12.10;17.40;;;;;;5106549;28;20556;-71
2023/03/23 01:36:14;;;;;;;7.70;4.60;;;12.10;17.10;;;;;;5105797;28;20477;-71
2023/03/23 01:38:42;;;;;;;10.23;5.50;;;12.00;17.40;;;;;;5106681;28;20532;-71
2023/03/23 01:41:09;;;;;;;8.63;4.63;;;12.00;17.80;;;;;;5105076;28;20451;-71
2023/03/23 01:43:37;;;;;;;13.53;5.77;;;12.00;18.00;;;;;;5106742;28;20924;-71
2023/03/23 01:46:04;;;;;;;8.50;4.80;;;12.00;18.00;;;;;;5100983;28;20472;-70
2023/03/23 01:48:33;;;;;;;9.17;5.07;;;12.00;17.90;;;;;;5103578;28;20535;-71
2023/03/23 01:51:07;;;;;;;9.73;5.93;;;12.10;17.60;;;;;;5085837;28;20947;-71
2023/03/23 01:53:38;;;;;;;11.03;5.27;;;12.10;17.40;;;;;;5095628;28;20440;-71
2023/03/23 01:56:07;;;;;;;8.60;5.60;;;12.10;17.40;;;;;;5107360;28;20859;-71
2023/03/23 01:58:37;;;;;;;9.57;5.93;;;12.10;17.30;;;;;;5105449;28;20536;-70
2023/03/23 02:01:07;;;;;;;10.00;5.83;;;12.20;17.30;;;;;;5105964;28;20483;-71
2023/03/23 02:03:38;;;;;;;9.50;5.50;;;12.10;17.50;;;;;;5106219;28;20459;-71
2023/03/23 02:06:07;;;;;;;12.27;5.67;;;12.20;17.60;;;;;;5105920;28;20495;-71
2023/03/23 02:08:34;;;;;;;9.30;5.90;;;12.20;17.70;;;;;;5106080;28;20462;-71
2023/03/23 02:11:01;;;;;;;8.50;5.47;;;12.20;17.70;;;;;;5106138;28;20942;-70
2023/03/23 02:13:29;;;;;;;10.40;6.03;;;12.20;17.90;;;;;;5106305;28;20451;-70
2023/03/23 02:16:04;;;;;;;9.67;5.90;;;12.20;18.10;;;;;;5100804;28;20476;-71
2023/03/23 02:18:47;;;;;;;9.77;5.87;;;12.20;18.40;;;;;;5096271;28;20515;-71
2023/03/23 02:21:47;;;;;;;10.10;6.27;;;12.20;18.60;;;;;;5104869;28;20447;-71
2023/03/23 02:24:33;;;;;;;9.77;6.67;;;12.20;18.60;;;;;;5088765;28;20466;-71
2023/03/23 02:27:01;;;;;;;8.40;5.60;;;12.10;18.60;;;;;;5105936;28;21012;-71
2023/03/23 02:30:00;;;;;;;10.83;6.30;;;12.10;18.70;;;;;;5106109;28;20450;-71
2023/03/23 02:33:05;;;;;;;8.43;5.67;;;12.10;18.80;;;;;;5102544;28;20850;-71
2023/03/23 02:35:36;;;;;;;12.00;6.60;;;12.10;18.80;;;;;;5076520;28;20474;-71
2023/03/23 02:38:07;;;;;;;9.57;6.30;;;12.00;18.90;;;;;;5097925;28;20448;-71
2023/03/23 02:40:40;;;;;;;9.00;6.10;;;12.00;19.10;;;;;;5100464;28;20484;-71
2023/03/23 02:43:09;;;;;;;11.83;6.93;;;11.90;19.60;;;;;;5098470;28;20450;-71
2023/03/23 02:45:39;;;;;;;11.37;6.53;;;12.00;18.80;;;;;;5105995;28;21056;-71
2023/03/23 02:48:07;;;;;;;10.10;6.33;;;12.10;18.70;;;;;;5109199;28;20526;-71
2023/03/23 02:50:38;;;;;;;10.10;5.60;;;12.10;18.90;;;;;;5108958;27;20451;-71
2023/03/23 02:53:09;;;;;;;9.23;6.00;;;12.10;19.20;;;;;;5092795;28;20456;-71
2023/03/23 02:55:40;;;;;;;10.73;6.13;;;12.10;19.50;;;;;;5106499;28;20840;-71
2023/03/23 02:58:07;;;;;;;9.20;5.87;;;12.00;19.30;;;;;;5109059;28;20455;-71
2023/03/23 03:00:34;;;;;;;10.00;5.50;;;12.00;19.30;;;;;;5109500;28;21085;-71
2023/03/23 03:03:02;;;;;;;8.67;5.67;;;12.10;19.20;;;;;;5109162;28;20482;-71
2023/03/23 03:05:40;;;;;;;10.67;6.37;;;12.10;19.20;;;;;;5109617;28;20489;-71
2023/03/23 03:08:17;;;;;;;10.53;5.80;;;12.00;19.10;;;;;;5109359;28;20481;-71
2023/03/23 03:10:51;;;;;;;9.40;6.13;;;12.00;19.00;;;;;;5109881;28;20518;-71
2023/03/23 03:13:31;;;;;;;11.90;6.27;;;12.00;19.00;;;;;;5108476;28;20914;-71
2023/03/23 03:16:05;;;;;;;8.80;5.43;;;12.00;19.10;;;;;;5109424;28;20475;-71
2023/03/23 03:18:39;;;;;;;8.73;5.70;;;12.00;19.20;;;;;;5108919;28;20439;-71
2023/03/23 03:21:12;;;;;;;10.53;6.43;;;12.10;19.30;;;;;;5109662;28;21032;-70
2023/03/23 03:23:41;;;;;;;10.13;5.73;;;12.00;19.40;;;;;;5108953;28;21047;-71
2023/03/23 03:26:10;;;;;;;10.70;6.33;;;12.10;19.70;;;;;;5108622;28;20475;-70
2023/03/23 03:28:37;;;;;;;9.63;6.20;;;12.00;19.60;;;;;;5108900;28;20451;-71
2023/03/23 03:31:06;;;;;;;10.60;5.90;;;12.10;19.30;;;;;;5108267;28;20893;-71
2023/03/23 03:33:33;;;;;;;8.20;4.47;;;12.10;19.30;;;;;;5109187;28;20460;-70
2023/03/23 03:36:03;;;;;;;8.90;5.50;;;12.20;19.20;;;;;;5107614;28;20568;-71
2023/03/23 03:38:42;;;;;;;10.93;5.67;;;12.20;19.20;;;;;;5108879;28;20482;-71
2023/03/23 03:41:09;;;;;;;11.43;6.10;;;12.20;19.20;;;;;;5108689;28;20455;-70
2023/03/23 03:43:36;;;;;;;9.00;5.80;;;12.20;19.30;;;;;;5107875;28;20937;-70
2023/03/23 03:46:03;;;;;;;10.43;6.43;;;12.20;19.50;;;;;;5108945;28;20479;-71
2023/03/23 03:48:29;;;;;;;9.50;6.50;;;12.20;19.60;;;;;;5108273;28;20454;-71
2023/03/23 03:50:56;;;;;;;10.87;6.30;;;12.20;19.90;;;;;;5100812;28;20444;-71
2023/03/23 03:53:23;;;;;;;9.83;5.93;;;12.20;19.90;;;;;;5089428;28;20448;-71
2023/03/23 03:55:55;;;;;;;11.70;5.63;;;12.20;20.00;;;;;;5108491;28;20482;-71
2023/03/23 03:58:22;;;;;;;8.47;5.27;;;12.10;20.50;;;;;;5107407;28;20499;-71
2023/03/23 04:00:49;;;;;;;12.10;6.77;;;12.10;20.20;;;;;;5108185;28;20482;-71
2023/03/23 04:03:16;;;;;;;8.23;5.93;;;12.10;20.40;;;;;;5107538;28;20451;-70
2023/03/23 04:05:44;;;;;;;8.37;5.10;;;12.10;20.30;;;;;;5108163;28;20468;-71
2023/03/23 04:08:11;;;;;;;9.23;5.07;;;12.10;20.10;;;;;;5108779;28;20862;-71
2023/03/23 04:10:39;;;;;;;10.40;4.87;;;12.20;20.00;;;;;;5107279;28;20451;-70
2023/03/23 04:13:07;;;;;;;8.23;4.47;;;12.20;19.90;;;;;;5108053;27;20536;-71
2023/03/23 04:15:34;;;;;;;7.50;4.30;;;12.20;19.90;;;;;;5107575;28;20476;-70
2023/03/23 04:18:00;;;;;;;8.90;4.87;;;12.20;19.70;;;;;;5108502;28;20459;-71
2023/03/23 04:20:27;;;;;;;7.70;4.57;;;12.20;19.80;;;;;;5103724;28;20463;-71
2023/03/23 04:22:54;;;;;;;7.20;3.93;;;12.30;19.80;;;;;;5107073;28;20455;-71
2023/03/23 04:25:22;;;;;;;8.70;4.13;;;12.20;19.90;;;;;;5107974;28;20479;-71
2023/03/23 04:27:52;;;;;;;8.30;4.77;;;12.30;19.80;;;;;;5107483;28;20451;-71
2023/03/23 04:30:21;;;;;;;10.10;5.40;;;12.30;19.80;;;;;;5106913;28;20483;-71
2023/03/23 04:32:50;;;;;;;8.27;4.73;;;12.30;19.80;;;;;;5107251;28;20456;-71
2023/03/23 04:35:18;;;;;;;9.30;4.93;;;12.30;19.70;;;;;;5108148;28;20511;-71
2023/03/23 04:37:45;;;;;;;7.63;3.87;;;12.40;19.60;;;;;;5106477;28;20447;-71
2023/03/23 04:40:14;;;;;;;8.03;4.30;;;12.40;19.30;;;;;;5107293;28;20471;-71
2023/03/23 04:42:45;;;;;;;8.60;4.50;;;12.50;19.20;;;;;;5104943;28;20459;-71
2023/03/23 04:45:14;;;;;;;18.97;5.47;;;12.50;19.00;;;;;;5107369;28;20451;-71
2023/03/23 04:47:52;;;;;;;7.33;4.13;;;12.60;18.80;;;;;;5099631;28;20495;-71
2023/03/23 04:50:23;;;;;;;7.70;4.40;;;12.70;18.80;;;;;;5104386;28;20435;-71
2023/03/23 04:52:51;;;;;;;6.40;3.60;;;12.70;18.90;;;;;;5108738;28;20504;-72
2023/03/23 04:55:19;;;;;;;10.83;4.43;;;12.80;18.70;;;;;;5101991;28;20486;-71
2023/03/23 04:57:46;;;;;;;7.80;4.50;;;12.80;18.40;;;;;;5097357;28;20471;-71
2023/03/23 05:00:16;;;;;;;7.63;4.10;;;12.90;18.50;;;;;;5099907;28;20474;-72
2023/03/23 05:02:46;;;;;;;6.97;3.23;;;12.80;18.50;;;;;;5102490;28;20810;-71
2023/03/23 05:05:15;;;;;;;7.60;3.97;;;12.90;18.50;;;;;;5106009;28;20854;-71
2023/03/23 05:07:42;;;;;;;6.97;3.43;;;12.90;18.40;;;;;;5094720;28;21023;-72
2023/03/23 05:10:11;;;;;;;6.70;3.50;;;12.90;18.50;;;;;;5106668;27;20440;-71
2023/03/23 05:12:39;;;;;;;8.90;4.70;;;12.90;18.60;;;;;;5096997;28;20564;-71
2023/03/23 05:15:07;;;;;;;8.10;3.83;;;12.90;18.50;;;;;;5100369;28;20538;-71
2023/03/23 05:17:34;;;;;;;7.13;3.80;;;12.90;18.60;;;;;;5105398;28;20455;-72
2023/03/23 05:20:05;;;;;;;6.90;3.50;;;13.00;18.60;;;;;;5099585;28;20472;-71
2023/03/23 05:22:32;;;;;;;7.87;3.60;;;13.00;18.50;;;;;;5104574;28;20813;-71
2023/03/23 05:24:59;;;;;;;9.03;3.63;;;13.00;18.50;;;;;;5100546;27;20520;-70
2023/03/23 05:27:27;;;;;;;6.73;3.53;;;13.00;18.40;;;;;;5105729;28;20466;-71
2023/03/23 05:29:54;;;;;;;11.77;4.40;;;13.00;18.50;;;;;;5102551;28;20447;-71
2023/03/23 05:32:29;;;;;;;6.63;3.63;;;13.00;18.60;;;;;;5094728;27;20471;-72
2023/03/23 05:34:56;;;;;;;8.10;4.20;;;13.00;18.70;;;;;;5097979;28;20539;-71
2023/03/23 05:37:26;;;;;;;8.30;3.37;;;13.00;18.80;;;;;;5097354;28;20456;-72
2023/03/23 05:39:55;;;;;;;7.00;3.80;;;13.00;19.00;;;;;;5102159;27;20483;-71
2023/03/23 05:42:22;;;;;;;7.43;3.70;;;13.00;18.80;;;;;;5101267;27;20472;-71
2023/03/23 05:44:49;;;;;;;6.90;3.90;;;13.00;18.70;;;;;;5104607;28;20933;-71
2023/03/23 05:47:16;;;;;;;7.60;3.80;;;13.00;18.80;;;;;;5104426;28;20861;-71
2023/03/23 05:49:43;;;;;;;8.10;3.50;;;13.10;18.80;;;;;;5100418;27;20465;-72
2023/03/23 05:52:10;;;;;;;9.93;4.03;;;13.10;18.70;;;;;;5101818;28;20872;-70
2023/03/23 05:54:38;;;;;;;13.87;5.00;;;13.10;18.80;;;;;;5104332;27;20517;-72
2023/03/23 05:57:05;;;;;;;9.17;4.50;;;13.10;18.90;;;;;;5106553;28;20497;-72
2023/03/23 05:59:33;;;;;;;8.80;4.70;;;13.10;18.80;;;;;;5096135;28;20512;-72
2023/03/23 06:02:00;;;;;;;8.40;4.70;;;13.10;18.90;;;;;;5106327;28;20486;-72
2023/03/23 06:04:27;;;;;;;7.43;4.50;;;13.10;18.90;;;;;;5105150;28;20459;-72
2023/03/23 06:06:53;;;;;;;9.23;4.57;;;13.10;19.00;;;;;;5105206;28;20478;-71
2023/03/23 06:09:20;;;;;;;11.10;5.30;;;13.00;19.00;;;;;;5101994;28;20945;-72
2023/03/23 06:11:48;;;;;;;10.53;4.27;;;13.00;19.10;;;;;;5102017;28;20459;-72
2023/03/23 06:14:16;;;;;;;8.17;4.77;;;13.00;19.30;;;;;;5087559;28;20457;-72
2023/03/23 06:16:43;;;;;;;10.27;4.77;;;13.00;19.40;;;;;;5097306;28;20570;-75
2023/03/23 06:19:10;;;;;;;9.20;5.60;;;13.00;19.90;;;;;;5089733;28;20456;-74
2023/03/23 06:21:38;;;;;;;9.97;5.53;;;13.00;20.10;;;;;;5099378;28;20475;-72
2023/03/23 06:24:05;;;;;;;9.70;4.87;;;13.00;20.20;;;;;;5110054;28;20498;-72
2023/03/23 06:26:34;;;;;;;10.73;6.33;;;13.00;20.50;;;;;;5108877;28;20996;-72
2023/03/23 06:29:03;;;;;;;10.73;6.60;;;13.00;20.70;;;;;;5110217;27;20456;-73
2023/03/23 06:31:31;;;;;;;8.90;5.73;;;13.00;20.80;;;;;;5109034;27;20471;-72
2023/03/23 06:33:57;;;;;;;12.03;6.80;;;13.10;21.00;;;;;;5106767;28;21116;-72
2023/03/23 06:36:26;;;;;;;11.53;6.23;;;13.10;21.00;;;;;;5102495;28;20524;-72
2023/03/23 06:38:53;;;;;;;11.63;5.37;;;13.10;20.90;;;;;;5112416;27;20450;-73
2023/03/23 06:41:20;;;;;;;10.70;6.13;;;13.10;20.70;;;;;;5110403;28;20832;-72
2023/03/23 06:43:46;;;;;;;12.17;5.57;;;13.20;21.40;;;;;;5106331;28;20553;-73
2023/03/23 06:46:15;;;;;;;8.43;5.30;;;13.20;20.60;;;;;;5108771;28;20570;-73
2023/03/23 06:48:42;;;;;;;9.93;5.47;;;13.20;20.50;;;;;;5107155;28;20465;-71
2023/03/23 06:51:08;;;;;;;10.53;6.53;;;13.20;20.30;;;;;;5106679;28;20458;-72
2023/03/23 06:53:35;;;;;;;11.23;5.97;;;13.30;19.90;;;;;;5106811;27;20570;-71
2023/03/23 06:56:03;;;;;;;8.93;5.67;;;13.30;19.70;;;;;;5103913;28;21061;-71
2023/03/23 06:58:29;;;;;;;7.90;4.83;;;13.40;19.40;;;;;;5105522;28;20463;-72
2023/03/23 07:00:58;;;;;;;7.60;5.20;;;13.40;19.40;;;;;;5104813;27;20483;-72
2023/03/23 07:03:27;;;;;;;9.50;5.40;;;13.50;19.50;;;;;;5103139;28;20455;-70
2023/03/23 07:05:54;;;;;;;10.43;5.27;;;13.70;19.50;;;;;;5104878;28;20479;-72
2023/03/23 07:08:21;;;;;;;8.80;5.17;;;13.90;19.60;;;;;;5105086;28;20454;-71
2023/03/23 07:10:49;;;;;;;9.50;5.77;;;14.00;19.50;;;;;;5108945;28;20458;-72
2023/03/23 07:13:16;;;;;;;8.67;5.13;;;14.20;19.30;;;;;;5106605;27;20463;-72
2023/03/23 07:15:43;;;;;;;9.77;5.00;;;14.40;18.80;;;;;;5108909;28;20470;-72
2023/03/23 07:18:10;;;;;;;12.43;5.20;;;14.60;17.90;;;;;;5108901;28;20505;-72
2023/03/23 07:20:38;;;;;;;8.50;5.30;;;14.80;17.40;;;;;;5106875;28;20859;-71
2023/03/23 07:23:06;;;;;;;7.43;4.93;;;15.00;17.00;;;;;;5103110;28;20479;-72
2023/03/23 07:25:33;;;;;;;7.50;5.10;;;15.10;16.50;;;;;;5102513;28;21081;-71
2023/03/23 07:27:59;;;;;;;8.83;5.00;;;15.20;16.20;;;;;;5106433;28;20524;-72
2023/03/23 07:30:28;;;;;;;9.43;5.63;;;15.20;16.10;;;;;;5107180;27;20771;-71
2023/03/23 07:32:55;;;;;;;8.77;5.13;;;15.20;16.20;;;;;;5099031;27;20456;-71
2023/03/23 07:35:22;;;;;;;7.50;4.80;;;15.20;16.20;;;;;;5095495;28;20467;-72
2023/03/23 07:37:51;;;;;;;11.13;5.03;;;15.10;16.30;;;;;;5105999;28;20470;-71
2023/03/23 07:40:20;;;;;;;11.10;5.10;;;15.10;16.30;;;;;;5103564;28;20876;-72
2023/03/23 07:42:52;;;;;;;7.97;4.80;;;15.20;16.10;;;;;;5101073;28;20460;-71
2023/03/23 07:45:19;;;;;;;7.83;4.40;;;15.30;16.00;;;;;;5098507;28;20487;-72
2023/03/23 07:47:46;;;;;;;7.07;4.57;;;15.40;15.50;;;;;;5098357;28;20459;-73
2023/03/23 07:50:13;;;;;;;12.67;4.20;;;15.60;14.90;;;;;;5105390;28;20962;-72
2023/03/23 07:52:41;;;;;;;11.20;4.63;;;15.80;14.50;;;;;;5105145;28;20494;-72
2023/03/23 07:55:17;;;;;;;8.53;4.30;;;15.90;14.20;;;;;;5108182;28;20509;-72
2023/03/23 07:57:44;;;;;;;10.13;4.80;;;16.00;13.80;;;;;;5106608;28;20459;-72
2023/03/23 08:00:15;;;;;;;8.47;4.03;;;16.10;13.70;;;;;;5092505;28;20451;-72
2023/03/23 08:02:42;;;;;;;7.43;3.87;;;16.10;13.50;;;;;;5108474;28;20446;-72
2023/03/23 08:05:10;;;;;;;8.87;4.37;;;16.20;13.30;;;;;;5106496;28;20515;-73
2023/03/23 08:07:37;;;;;;;7.27;4.13;;;16.20;13.20;;;;;;5107623;28;20470;-73
2023/03/23 08:10:04;;;;;;;7.43;3.60;;;16.20;13.10;;;;;;5108341;27;20500;-72
2023/03/23 08:12:32;;;;;;;8.90;4.17;;;16.20;13.10;;;;;;5107895;28;20465;-73
2023/03/23 08:14:59;;;;;;;7.37;3.93;;;16.10;13.20;;;;;;5096096;27;20452;-72
2023/03/23 08:17:26;;;;;;;7.80;4.33;;;16.00;13.30;;;;;;5103874;28;20509;-73
2023/03/23 08:19:52;;;;;;;8.30;4.27;;;16.00;13.60;;;;;;5097529;27;20462;-73
2023/03/23 08:22:20;;;;;;;8.40;4.00;;;15.80;13.80;;;;;;5095720;28;20986;-73
2023/03/23 08:24:47;;;;;;;7.27;3.73;;;15.80;14.10;;;;;;5103963;28;20550;-73
2023/03/23 08:27:14;;;;;;;9.30;3.47;;;15.80;14.50;;;;;;5102278;28;20483;-72
2023/03/23 08:29:44;;;;;;;12.57;4.40;;;15.90;14.50;;;;;;5099867;28;20458;-73
2023/03/23 08:32:11;;;;;;;5.90;3.77;;;15.90;14.40;;;;;;5096106;27;20464;-73
2023/03/23 08:34:38;;;;;;;7.83;4.30;;;15.90;14.60;;;;;;5102018;27;20464;-72
2023/03/23 08:37:05;;;;;;;9.00;4.37;;;16.00;14.70;;;;;;5108555;28;20467;-72
2023/03/23 08:39:33;;;;;;;11.63;4.93;;;16.00;14.50;;;;;;5097547;28;21197;-72
2023/03/23 08:42:00;;;;;;;6.33;3.93;;;16.10;14.50;;;;;;5098622;28;20471;-72
2023/03/23 08:44:27;;;;;;;11.70;4.47;;;16.30;14.50;;;;;;5101349;28;20448;-72
2023/03/23 08:46:56;;;;;;;8.30;4.30;;;16.30;14.70;;;;;;5106375;28;20483;-72
2023/03/23 08:49:23;;;;;;;8.60;4.10;;;16.50;14.20;;;;;;5096777;28;20479;-72
2023/03/23 08:51:50;;;;;;;8.27;4.40;;;16.60;13.70;;;;;;5110174;28;20459;-72
2023/03/23 08:54:17;;;;;;;9.00;4.37;;;16.80;13.50;;;;;;5108614;28;20785;-72
2023/03/23 08:56:44;;;;;;;10.50;4.17;;;17.00;13.20;;;;;;5107951;28;20489;-72
2023/03/23 08:59:11;;;;;;;6.77;3.80;;;17.30;13.00;;;;;;5104430;28;20459;-71
2023/03/23 09:01:38;;;;;;;6.30;3.60;;;17.70;12.20;;;;;;5105578;28;20892;-72
2023/03/23 09:04:06;;;;;;;7.07;3.33;;;18.00;11.20;;;;;;5096296;28;20479;-72
2023/03/23 09:06:33;;;;;;;6.20;3.20;;;17.90;10.80;;;;;;5098706;28;20514;-71
2023/03/23 09:09:05;;;;;;;6.33;3.80;;;17.90;12.00;;;;;;5091020;28;20514;-72
2023/03/23 09:11:32;;;;;;;6.43;3.10;;;18.00;11.70;;;;;;5090238;28;20456;-72
2023/03/23 09:13:58;;;;;;;6.63;3.83;;;18.00;11.50;;;;;;5091101;27;20460;-70
2023/03/23 09:16:26;;;;;;;7.53;3.80;;;18.10;11.20;;;;;;5097354;28;20796;-70
2023/03/23 09:18:53;;;;;;;6.30;3.23;;;18.10;10.60;;;;;;5094857;28;20813;-71
2023/03/23 09:21:21;;;;;;;8.20;3.50;;;18.00;10.50;;;;;;5086701;28;20503;-70
2023/03/23 09:23:48;;;;;;;6.47;3.67;;;18.00;10.70;;;;;;5094868;28;20467;-71
2023/03/23 09:26:15;;;;;;;7.30;3.57;;;18.00;10.50;;;;;;5099633;28;20486;-70
2023/03/23 09:28:44;;;;;;;6.77;4.00;;;17.90;10.10;;;;;;5090146;28;20543;-71
2023/03/23 09:31:11;;;;;;;7.10;3.50;;;17.90;10.00;;;;;;5093602;28;20488;-70
2023/03/23 09:33:38;;;;;;;8.70;3.80;;;17.80;9.90;;;;;;5094727;28;20459;-71
2023/03/23 09:36:07;;;;;;;9.13;3.57;;;17.70;10.40;;;;;;5106604;28;20478;-71
2023/03/23 09:38:36;;;;;;;8.73;3.50;;;17.70;10.10;;;;;;5099059;28;20828;-72
2023/03/23 09:41:13;;;;;;;6.63;3.30;;;17.70;10.20;;;;;;5102043;28;20931;-71
2023/03/23 09:43:52;;;;;;;6.23;3.50;;;17.70;10.40;;;;;;5099968;28;20454;-72
2023/03/23 09:46:43;;;;;;;7.30;2.97;;;17.70;10.40;;;;;;5103292;28;20811;-72
2023/03/23 09:49:13;;;;;;;7.50;2.90;;;17.70;10.70;;;;;;5095901;28;20483;-71
2023/03/23 09:51:44;;;;;;;6.70;3.27;;;17.70;9.90;;;;;;5101650;28;20487;-72
2023/03/23 09:54:19;;;;;;;5.50;2.60;;;17.70;10.60;;;;;;5101996;27;20455;-71
2023/03/23 09:56:47;;;;;;;7.30;2.93;;;17.60;10.10;;;;;;5102687;28;20486;-72
2023/03/23 09:59:20;;;;;;;6.00;2.50;;;17.50;10.50;;;;;;5105833;28;20532;-72
2023/03/23 10:01:49;;;;;;;11.70;4.70;;;17.50;10.70;;;;;;5097428;28;20477;-72
2023/03/23 10:04:26;;;;;;;7.60;3.10;;;17.60;10.60;;;;;;5103192;28;20452;-72
2023/03/23 10:06:54;;;;;;;8.47;3.50;;;17.60;10.70;;;;;;5102255;28;21023;-72
2023/03/23 10:09:22;;;;;;;5.23;2.97;;;17.60;10.80;;;;;;5105037;28;20467;-71
2023/03/23 10:11:57;;;;;;;6.70;3.30;;;17.70;10.20;;;;;;5105664;28;20945;-72
2023/03/23 10:14:46;;;;;;;6.27;2.73;;;17.70;10.40;;;;;;5106171;28;20964;-72
2023/03/23 10:17:15;;;;;;;7.77;2.90;;;17.90;10.50;;;;;;5105715;28;20471;-72
2023/03/23 10:19:49;;;;;;;5.80;3.13;;;17.90;10.60;;;;;;5105698;28;20543;-71
2023/03/23 10:22:21;;;;;;;6.70;2.87;;;18.00;10.30;;;;;;5105353;28;20835;-71
2023/03/23 10:24:53;;;;;;;6.20;3.13;;;18.10;10.20;;;;;;5105511;28;20462;-72
2023/03/23 10:27:30;;;;;;;6.07;2.67;;;18.10;10.40;;;;;;5105623;28;20471;-72
2023/03/23 10:30:02;;;;;;;9.03;2.70;;;18.10;10.40;;;;;;5093468;28;20827;-72
2023/03/23 10:32:42;;;;;;;7.23;2.83;;;18.00;9.90;;;;;;5093722;28;20467;-71
2023/03/23 10:35:15;;;;;;;8.63;2.60;;;18.00;10.10;;;;;;5104855;28;20463;-72
2023/03/23 10:37:45;;;;;;;6.93;3.30;;;18.00;9.80;;;;;;5104813;28;20949;-72
2023/03/23 10:40:19;;;;;;;6.07;3.10;;;18.00;9.90;;;;;;5105556;28;20950;-72
2023/03/23 10:42:47;;;;;;;12.73;3.70;;;18.00;10.00;;;;;;5098727;28;20473;-72
2023/03/23 10:45:18;;;;;;;10.70;3.67;;;18.10;10.20;;;;;;5103946;28;20863;-72
2023/03/23 10:47:52;;;;;;;5.53;3.03;;;18.20;9.90;;;;;;5105660;28;20934;-72
2023/03/23 10:50:24;;;;;;;8.53;3.13;;;18.40;9.90;;;;;;5091776;28;20442;-72
2023/03/23 10:52:53;;;;;;;6.10;3.30;;;19.00;9.20;;;;;;5105189;28;20455;-72
2023/03/23 10:55:22;;;;;;;5.47;2.70;;;19.20;8.40;;;;;;5105645;28;20485;-72
2023/03/23 10:58:00;;;;;;;5.80;2.67;;;19.20;7.80;;;;;;5103300;28;20460;-72
2023/03/23 11:00:29;;;;;;;6.80;3.17;;;19.30;8.40;;;;;;5105046;28;20451;-71
2023/03/23 11:03:01;;;;;;;6.53;3.07;;;19.30;8.00;;;;;;5105091;28;20467;-72
2023/03/23 11:05:36;;;;;;;5.40;2.60;;;19.30;8.10;;;;;;5105115;28;21029;-72
2023/03/23 11:08:03;;;;;;;6.27;2.63;;;19.30;8.40;;;;;;5097572;28;20467;-72
2023/03/23 11:10:37;;;;;;;7.20;2.37;;;19.30;7.60;;;;;;5102689;28;20832;-72
2023/03/23 11:13:09;;;;;;;6.73;2.40;;;19.20;7.40;;;;;;5104410;28;20472;-71
2023/03/23 11:15:40;;;;;;;4.73;2.20;;;19.10;7.10;;;;;;5107687;28;20551;-72
2023/03/23 11:18:10;;;;;;;7.17;2.33;;;19.20;7.30;;;;;;5107014;28;21030;-72
2023/03/23 11:20:41;;;;;;;9.60;3.77;;;19.30;7.50;;;;;;5104897;28;20451;-72
2023/03/23 11:23:21;;;;;;;6.47;2.43;;;19.40;7.70;;;;;;5103562;28;20468;-72
2023/03/23 11:25:57;;;;;;;5.80;2.83;;;19.40;7.90;;;;;;5099566;28;20483;-72
2023/03/23 11:28:30;;;;;;;6.20;2.30;;;19.50;7.80;;;;;;5104990;28;20454;-72
2023/03/23 11:30:59;;;;;;;6.70;2.10;;;19.60;7.30;;;;;;5101025;28;20989;-72
2023/03/23 11:33:29;;;;;;;6.00;2.33;;;19.60;7.00;;;;;;5104156;28;20866;-72
2023/03/23 11:35:56;;;;;;;6.13;2.60;;;19.60;6.80;;;;;;5104939;28;20479;-72
2023/03/23 11:38:27;;;;;;;5.03;1.97;;;19.60;7.20;;;;;;5108129;28;20947;-72
2023/03/23 11:40:55;;;;;;;5.10;2.60;;;19.60;6.90;;;;;;5110735;28;20676;-72
2023/03/23 11:43:24;;;;;;;4.83;2.20;;;19.50;7.10;;;;;;5108001;28;20482;-72
2023/03/23 11:46:00;;;;;;;5.40;2.10;;;19.50;7.70;;;;;;5100924;28;20898;-72
2023/03/23 11:48:40;;;;;;;5.30;2.33;;;19.40;7.20;;;;;;5106548;28;20443;-72
2023/03/23 11:51:13;;;;;;;5.03;2.07;;;19.30;7.30;;;;;;5090169;28;20436;-72
2023/03/23 11:53:49;;;;;;;5.10;2.13;;;19.20;8.10;;;;;;5108874;28;20458;-72
2023/03/23 11:56:24;;;;;;;5.00;1.70;;;19.20;8.30;;;;;;5110339;28;20467;-72
2023/03/23 11:58:51;;;;;;;5.07;1.90;;;19.30;7.70;;;;;;5096228;28;20460;-72
2023/03/23 12:01:27;;;;;;;5.37;2.30;;;19.20;7.90;;;;;;5108224;28;20462;-72
2023/03/23 12:04:15;;;;;;;6.23;2.47;;;19.00;8.20;;;;;;5103460;28;21095;-72
2023/03/23 12:06:53;;;;;;;6.43;2.43;;;18.90;8.80;;;;;;5106810;28;20566;-72
2023/03/23 12:09:40;;;;;;;4.70;2.13;;;18.80;9.10;;;;;;5100719;28;20459;-72
2023/03/23 12:12:15;;;;;;;6.70;2.50;;;18.80;9.10;;;;;;5103197;28;20534;-72
2023/03/23 12:14:51;;;;;;;5.90;2.70;;;18.70;9.70;;;;;;5107562;28;20454;-72
2023/03/23 12:17:27;;;;;;;5.37;2.43;;;18.60;10.00;;;;;;5100390;28;20509;-72
2023/03/23 12:20:10;;;;;;;6.00;2.33;;;18.60;9.90;;;;;;5107082;28;20435;-72
2023/03/23 12:22:45;;;;;;;5.20;2.50;;;18.70;9.50;;;;;;5109655;28;20567;-73
2023/03/23 12:25:33;;;;;;;4.63;2.20;;;18.90;9.20;;;;;;5106903;28;20454;-72
2023/03/23 12:28:07;;;;;;;6.30;2.20;;;18.90;8.90;;;;;;5101586;28;20497;-72
2023/03/23 12:30:41;;;;;;;6.73;2.47;;;19.00;9.10;;;;;;5108181;28;20462;-72
2023/03/23 12:33:30;;;;;;;6.17;2.00;;;19.00;8.90;;;;;;5103610;28;20841;-71
2023/03/23 12:36:10;;;;;;;5.70;2.73;;;19.10;8.70;;;;;;5100501;28;20559;-72
2023/03/23 12:39:19;;;;;;;6.30;2.73;;;19.20;8.60;;;;;;5095322;28;20463;-72
2023/03/23 12:41:51;;;;;;;5.63;2.67;;;19.20;8.80;;;;;;5102412;28;20457;-72
2023/03/23 12:44:25;;;;;;;7.10;2.63;;;19.30;8.50;;;;;;5106900;27;20971;-71
2023/03/23 12:47:16;;;;;;;6.33;2.30;;;19.50;8.20;;;;;;5102171;27;20489;-71
2023/03/23 12:49:47;;;;;;;5.10;2.40;;;19.70;8.20;;;;;;5100444;27;20462;-72
2023/03/23 12:52:20;;;;;;;6.07;2.70;;;20.00;7.80;;;;;;5097915;27;20502;-72
2023/03/23 12:54:53;;;;;;;5.73;2.70;;;20.10;7.70;;;;;;5099126;27;20452;-72
2023/03/23 12:57:27;;;;;;;7.10;2.47;;;20.20;6.80;;;;;;5097678;28;20579;-72
2023/03/23 13:00:05;;;;;;;5.10;2.43;;;20.20;7.20;;;;;;5103163;27;20685;-71
2023/03/23 13:02:35;;;;;;;4.60;2.23;;;20.30;7.30;;;;;;5101659;28;20837;-72